National Geographic Sea Lion — WUR9646 — position and weather

sailwx.info

Track history (hours):
 
Tides and Currents Weather Stations Pressure Air Temp Water Temp Dewpoint Dewpoint Depression Visibility Wind Speed Wind Dir Waves Ship Positions

National Geographic Sea Lion

Owner: Lindblad Expeditions LLC, SEATTLE, WA. More information available from US FCC via Universal Licensing System and Coast Guard Vessel Documentation Center.

Last reported at 2019-Aug-23 09:45 UTC. Time now 2019-Aug-24 06:41 UTC.
Position N 58°10' W 135°20'.

Length 45 m; draft 2.4 m.

Type: Passenger vessel. MMSI: 366396000.

Date/timePositionNaut miles runAvg speedWind from/ knotsBaromVisibWave heightAir tempDewpointWater temp
2019-Aug-23 09:45N 58°10' W 135°20'2 8.8
2019-Aug-23 09:29N 58°12' W 135°24'4 8.9
2019-Aug-23 09:00N 58°14' W 135°31'4 8.7
2019-Aug-23 08:30N 58°16' W 135°38'4 8.9
2019-Aug-23 08:00N 58°19' W 135°44'4 7.6
2019-Aug-23 07:31N 58°23' W 135°44'0 0.2
2019-Aug-23 06:59N 58°23' W 135°44'0 0.0
2019-Aug-23 06:26N 58°23' W 135°44'0 0.1
2019-Aug-23 05:59N 58°23' W 135°44'0 0.1
2019-Aug-23 05:29N 58°23' W 135°44'0 0.0
2019-Aug-23 04:59N 58°23' W 135°44'0 0.0
2019-Aug-23 04:29N 58°23' W 135°44'0 0.0
2019-Aug-23 03:59N 58°23' W 135°44'0 0.0
2019-Aug-23 03:30N 58°23' W 135°44'4 8.7
2019-Aug-23 03:00N 58°22' W 135°52'4 8.2
2019-Aug-23 02:30N 58°21' W 135°60'4 8.8
2019-Aug-23 02:01N 58°19' W 136°07'5 8.7
2019-Aug-23 01:29N 58°18' W 136°16'4 8.8
2019-Aug-23 00:59N 58°21' W 136°22'0 0.1
2019-Aug-22 23:09N 58°21' W 136°22'0 0.0
2019-Aug-22 20:48N 58°21' W 136°22'1 0.1
2019-Aug-22 15:44N 58°21' W 136°21'4 8.4
2019-Aug-22 15:16N 58°19' W 136°15'410.3
2019-Aug-22 14:54N 58°15' W 136°16'3 6.8
2019-Aug-22 14:30N 58°12' W 136°16'0 0.0
2019-Aug-22 13:52N 58°12' W 136°16'0 0.0
2019-Aug-22 13:19N 58°12' W 136°16'0 0.1
2019-Aug-22 12:49N 58°12' W 136°16'0 0.0
2019-Aug-22 12:28N 58°12' W 136°16'0 0.0
2019-Aug-22 11:55N 58°12' W 136°16'0 0.0
2019-Aug-22 11:28N 58°12' W 136°16'0 0.0
2019-Aug-22 10:58N 58°12' W 136°16'0 0.0
2019-Aug-22 10:28N 58°12' W 136°16'0 0.0
2019-Aug-22 09:43N 58°12' W 136°16'0 0.0
2019-Aug-22 09:28N 58°12' W 136°16'0 0.1
2019-Aug-22 08:55N 58°12' W 136°16'0 0.1
2019-Aug-22 08:28N 58°12' W 136°16'0 0.0
2019-Aug-22 07:49N 58°12' W 136°16'0 0.1
2019-Aug-22 07:24N 58°12' W 136°16'1 2.2
2019-Aug-22 07:00N 58°13' W 136°15'5 9.3
2019-Aug-22 06:30N 58°14' W 136°07'510.4
2019-Aug-22 06:00N 58°17' W 135°58'510.5
2019-Aug-22 05:30N 58°20' W 135°50'4 8.9
2019-Aug-22 05:00N 58°23' W 135°44'2 3.9
2019-Aug-22 04:30N 58°22' W 135°47'5 9.2
2019-Aug-22 04:00N 58°19' W 135°54'4 8.7
2019-Aug-22 03:30N 58°17' W 136°00'4 8.6
2019-Aug-22 03:00N 58°14' W 136°07'4 8.9
2019-Aug-22 02:30N 58°14' W 136°16'2 3.1
2019-Aug-22 01:49N 58°14' W 136°20'0 0.0
2019-Aug-22 01:25N 58°14' W 136°20'0 0.1
2019-Aug-22 00:52N 58°14' W 136°20'0 0.0
2019-Aug-21 21:57N 58°14' W 136°20'  
2019-Aug-14 05:23N 58°11' W 135°24'410.4
2019-Aug-14 04:59N 58°13' W 135°31'510.4
2019-Aug-14 04:30N 58°15' W 135°39'510.5
2019-Aug-14 04:00N 58°18' W 135°48'611.2
2019-Aug-14 03:30N 58°16' W 135°58'5 9.9
2019-Aug-14 02:58N 58°14' W 136°08'5 9.8
2019-Aug-14 02:30N 58°12' W 136°15'0 0.3
2019-Aug-14 02:00N 58°12' W 136°15'0 0.1
2019-Aug-14 01:30N 58°12' W 136°16'0 0.1
2019-Aug-14 00:57N 58°12' W 136°15'0 0.1
2019-Aug-14 00:30N 58°12' W 136°16'0 0.0
2019-Aug-13 23:48N 58°12' W 136°16'0 0.1
2019-Aug-13 23:30N 58°12' W 136°15'0 0.0
2019-Aug-13 22:45N 58°12' W 136°16'0 0.0
2019-Aug-13 22:21N 58°12' W 136°16'0 0.0
2019-Aug-13 22:00N 58°12' W 136°16'0 0.0
2019-Aug-13 21:30N 58°12' W 136°16'0 0.1
2019-Aug-13 20:59N 58°12' W 136°15'2 4.8
2019-Aug-13 20:30N 58°14' W 136°19'1 0.9
2019-Aug-13 19:40N 58°14' W 136°20'0 0.0
2019-Aug-13 15:54N 58°14' W 136°20'2 5.2
2019-Aug-13 15:30N 58°14' W 136°16'2 4.0
2019-Aug-13 14:59N 58°13' W 136°13'2 1.8
2019-Aug-13 14:06N 58°12' W 136°16'0 0.3
2019-Aug-13 14:00N 58°12' W 136°16'0 0.0
2019-Aug-13 13:24N 58°12' W 136°16'0 0.1
2019-Aug-13 13:00N 58°12' W 136°16'0 0.0
2019-Aug-13 12:06N 58°12' W 136°16'0 0.3
2019-Aug-13 11:57N 58°12' W 136°16'0 0.0
2019-Aug-13 11:27N 58°12' W 136°16'0 0.0
2019-Aug-13 11:00N 58°12' W 136°16'0 0.1
2019-Aug-13 10:24N 58°12' W 136°16'0 0.0
2019-Aug-13 09:57N 58°12' W 136°16'  
Track history (hours):
 
Tides and Currents Weather Stations Pressure Air Temp Water Temp Dewpoint Dewpoint Depression Visibility Wind Speed Wind Dir Waves Ship Positions

National Geographic Sea Lion

Owner: Lindblad Expeditions LLC, SEATTLE, WA. More information available from US FCC via Universal Licensing System and Coast Guard Vessel Documentation Center.

Last reported at 2019-Aug-23 09:45 UTC. Time now 2019-Aug-24 06:41 UTC.
Position N 58°10' W 135°20'.

Length 45 m; draft 2.4 m.

Type: Passenger vessel. MMSI: 366396000.

Date/timePositionNaut miles runAvg speedWind from/ knotsBaromVisibWave heightAir tempDewpointWater temp
2019-Aug-23 09:45N 58°10' W 135°20'2 8.8
2019-Aug-23 09:29N 58°12' W 135°24'4 8.9
2019-Aug-23 09:00N 58°14' W 135°31'4 8.7
2019-Aug-23 08:30N 58°16' W 135°38'4 8.9
2019-Aug-23 08:00N 58°19' W 135°44'4 7.6
2019-Aug-23 07:31N 58°23' W 135°44'0 0.2
2019-Aug-23 06:59N 58°23' W 135°44'0 0.0
2019-Aug-23 06:26N 58°23' W 135°44'0 0.1
2019-Aug-23 05:59N 58°23' W 135°44'0 0.1
2019-Aug-23 05:29N 58°23' W 135°44'0 0.0
2019-Aug-23 04:59N 58°23' W 135°44'0 0.0
2019-Aug-23 04:29N 58°23' W 135°44'0 0.0
2019-Aug-23 03:59N 58°23' W 135°44'0 0.0
2019-Aug-23 03:30N 58°23' W 135°44'4 8.7
2019-Aug-23 03:00N 58°22' W 135°52'4 8.2
2019-Aug-23 02:30N 58°21' W 135°60'4 8.8
2019-Aug-23 02:01N 58°19' W 136°07'5 8.7
2019-Aug-23 01:29N 58°18' W 136°16'4 8.8
2019-Aug-23 00:59N 58°21' W 136°22'0 0.1
2019-Aug-22 23:09N 58°21' W 136°22'0 0.0
2019-Aug-22 20:48N 58°21' W 136°22'1 0.1
2019-Aug-22 15:44N 58°21' W 136°21'4 8.4
2019-Aug-22 15:16N 58°19' W 136°15'410.3
2019-Aug-22 14:54N 58°15' W 136°16'3 6.8
2019-Aug-22 14:30N 58°12' W 136°16'0 0.0
2019-Aug-22 13:52N 58°12' W 136°16'0 0.0
2019-Aug-22 13:19N 58°12' W 136°16'0 0.1
2019-Aug-22 12:49N 58°12' W 136°16'0 0.0
2019-Aug-22 12:28N 58°12' W 136°16'0 0.0
2019-Aug-22 11:55N 58°12' W 136°16'0 0.0
2019-Aug-22 11:28N 58°12' W 136°16'0 0.0
2019-Aug-22 10:58N 58°12' W 136°16'0 0.0
2019-Aug-22 10:28N 58°12' W 136°16'0 0.0
2019-Aug-22 09:43N 58°12' W 136°16'0 0.0
2019-Aug-22 09:28N 58°12' W 136°16'0 0.1
2019-Aug-22 08:55N 58°12' W 136°16'0 0.1
2019-Aug-22 08:28N 58°12' W 136°16'0 0.0
2019-Aug-22 07:49N 58°12' W 136°16'0 0.1
2019-Aug-22 07:24N 58°12' W 136°16'1 2.2
2019-Aug-22 07:00N 58°13' W 136°15'5 9.3
2019-Aug-22 06:30N 58°14' W 136°07'510.4
2019-Aug-22 06:00N 58°17' W 135°58'510.5
2019-Aug-22 05:30N 58°20' W 135°50'4 8.9
2019-Aug-22 05:00N 58°23' W 135°44'2 3.9
2019-Aug-22 04:30N 58°22' W 135°47'5 9.2
2019-Aug-22 04:00N 58°19' W 135°54'4 8.7
2019-Aug-22 03:30N 58°17' W 136°00'4 8.6
2019-Aug-22 03:00N 58°14' W 136°07'4 8.9
2019-Aug-22 02:30N 58°14' W 136°16'2 3.1
2019-Aug-22 01:49N 58°14' W 136°20'0 0.0
2019-Aug-22 01:25N 58°14' W 136°20'0 0.1
2019-Aug-22 00:52N 58°14' W 136°20'0 0.0
2019-Aug-21 21:57N 58°14' W 136°20'  
2019-Aug-14 05:23N 58°11' W 135°24'410.4
2019-Aug-14 04:59N 58°13' W 135°31'510.4
2019-Aug-14 04:30N 58°15' W 135°39'510.5
2019-Aug-14 04:00N 58°18' W 135°48'611.2
2019-Aug-14 03:30N 58°16' W 135°58'5 9.9
2019-Aug-14 02:58N 58°14' W 136°08'5 9.8
2019-Aug-14 02:30N 58°12' W 136°15'0 0.3
2019-Aug-14 02:00N 58°12' W 136°15'0 0.1
2019-Aug-14 01:30N 58°12' W 136°16'0 0.1
2019-Aug-14 00:57N 58°12' W 136°15'0 0.1
2019-Aug-14 00:30N 58°12' W 136°16'0 0.0
2019-Aug-13 23:48N 58°12' W 136°16'0 0.1
2019-Aug-13 23:30N 58°12' W 136°15'0 0.0
2019-Aug-13 22:45N 58°12' W 136°16'0 0.0
2019-Aug-13 22:21N 58°12' W 136°16'0 0.0
2019-Aug-13 22:00N 58°12' W 136°16'0 0.0
2019-Aug-13 21:30N 58°12' W 136°16'0 0.1
2019-Aug-13 20:59N 58°12' W 136°15'2 4.8
2019-Aug-13 20:30N 58°14' W 136°19'1 0.9
2019-Aug-13 19:40N 58°14' W 136°20'0 0.0
2019-Aug-13 15:54N 58°14' W 136°20'2 5.2
2019-Aug-13 15:30N 58°14' W 136°16'2 4.0
2019-Aug-13 14:59N 58°13' W 136°13'2 1.8
2019-Aug-13 14:06N 58°12' W 136°16'0 0.3
2019-Aug-13 14:00N 58°12' W 136°16'0 0.0
2019-Aug-13 13:24N 58°12' W 136°16'0 0.1
2019-Aug-13 13:00N 58°12' W 136°16'0 0.0
2019-Aug-13 12:06N 58°12' W 136°16'0 0.3
2019-Aug-13 11:57N 58°12' W 136°16'0 0.0
2019-Aug-13 11:27N 58°12' W 136°16'0 0.0
2019-Aug-13 11:00N 58°12' W 136°16'0 0.1
2019-Aug-13 10:24N 58°12' W 136°16'0 0.0
2019-Aug-13 09:57N 58°12' W 136°16'  

Dump ship's entire track history